sensor_id;sensor_type;location;lat;lon;timestamp;P1;durP1;ratioP1;P2;durP2;ratioP2
56877;SDS011;42765;44.764;19.676;2022-08-07T00:00:24;6.65;;;2.30;;
56877;SDS011;42765;44.764;19.676;2022-08-07T00:02:52;3.70;;;2.60;;
56877;SDS011;42765;44.764;19.676;2022-08-07T00:05:20;5.38;;;2.58;;
56877;SDS011;42765;44.764;19.676;2022-08-07T00:07:46;5.18;;;1.95;;
56877;SDS011;42765;44.764;19.676;2022-08-07T00:10:13;4.88;;;2.53;;
56877;SDS011;42765;44.764;19.676;2022-08-07T00:12:39;4.53;;;2.30;;
56877;SDS011;42765;44.764;19.676;2022-08-07T00:15:05;2.97;;;2.15;;
56877;SDS011;42765;44.764;19.676;2022-08-07T00:17:31;6.32;;;2.67;;
56877;SDS011;42765;44.764;19.676;2022-08-07T00:19:57;4.45;;;2.00;;
56877;SDS011;42765;44.764;19.676;2022-08-07T00:22:23;4.05;;;2.38;;
56877;SDS011;42765;44.764;19.676;2022-08-07T00:24:48;5.95;;;2.65;;
56877;SDS011;42765;44.764;19.676;2022-08-07T00:27:15;4.15;;;2.08;;
56877;SDS011;42765;44.764;19.676;2022-08-07T00:29:41;10.32;;;2.28;;
56877;SDS011;42765;44.764;19.676;2022-08-07T00:32:07;5.72;;;1.95;;
56877;SDS011;42765;44.764;19.676;2022-08-07T00:34:35;5.88;;;2.40;;
56877;SDS011;42765;44.764;19.676;2022-08-07T00:37:01;4.15;;;2.00;;
56877;SDS011;42765;44.764;19.676;2022-08-07T00:39:28;6.53;;;2.20;;
56877;SDS011;42765;44.764;19.676;2022-08-07T00:41:55;3.28;;;2.47;;
56877;SDS011;42765;44.764;19.676;2022-08-07T00:44:22;3.17;;;1.95;;
56877;SDS011;42765;44.764;19.676;2022-08-07T00:46:48;6.13;;;2.10;;
56877;SDS011;42765;44.764;19.676;2022-08-07T00:49:15;4.50;;;2.17;;
56877;SDS011;42765;44.764;19.676;2022-08-07T00:51:41;3.53;;;2.00;;
56877;SDS011;42765;44.764;19.676;2022-08-07T00:54:07;4.50;;;1.70;;
56877;SDS011;42765;44.764;19.676;2022-08-07T00:56:34;3.95;;;1.65;;
56877;SDS011;42765;44.764;19.676;2022-08-07T00:59:01;1.73;;;1.33;;
56877;SDS011;42765;44.764;19.676;2022-08-07T01:01:27;2.58;;;1.42;;
56877;SDS011;42765;44.764;19.676;2022-08-07T01:03:53;1.25;;;1.08;;
56877;SDS011;42765;44.764;19.676;2022-08-07T01:06:19;3.13;;;1.67;;
56877;SDS011;42765;44.764;19.676;2022-08-07T01:08:45;4.00;;;1.23;;
56877;SDS011;42765;44.764;19.676;2022-08-07T01:11:12;1.40;;;1.00;;
56877;SDS011;42765;44.764;19.676;2022-08-07T01:13:38;3.63;;;1.73;;
56877;SDS011;42765;44.764;19.676;2022-08-07T01:16:05;2.80;;;1.20;;
56877;SDS011;42765;44.764;19.676;2022-08-07T01:18:32;9.32;;;1.30;;
56877;SDS011;42765;44.764;19.676;2022-08-07T01:21:11;6.38;;;1.25;;
56877;SDS011;42765;44.764;19.676;2022-08-07T01:23:39;6.53;;;1.50;;
56877;SDS011;42765;44.764;19.676;2022-08-07T01:26:07;3.20;;;1.20;;
56877;SDS011;42765;44.764;19.676;2022-08-07T01:28:34;2.35;;;1.13;;
56877;SDS011;42765;44.764;19.676;2022-08-07T01:31:01;2.80;;;0.90;;
56877;SDS011;42765;44.764;19.676;2022-08-07T01:33:28;2.45;;;1.02;;
56877;SDS011;42765;44.764;19.676;2022-08-07T01:35:55;1.15;;;0.77;;
56877;SDS011;42765;44.764;19.676;2022-08-07T01:38:22;1.08;;;1.00;;
56877;SDS011;42765;44.764;19.676;2022-08-07T01:40:48;1.35;;;0.80;;
56877;SDS011;42765;44.764;19.676;2022-08-07T01:43:15;3.97;;;0.90;;
56877;SDS011;42765;44.764;19.676;2022-08-07T01:45:41;0.90;;;0.90;;
56877;SDS011;42765;44.764;19.676;2022-08-07T01:48:07;6.35;;;1.20;;
56877;SDS011;42765;44.764;19.676;2022-08-07T01:50:37;4.75;;;1.08;;
56877;SDS011;42765;44.764;19.676;2022-08-07T01:53:05;3.53;;;1.10;;
56877;SDS011;42765;44.764;19.676;2022-08-07T01:55:33;6.40;;;0.93;;
56877;SDS011;42765;44.764;19.676;2022-08-07T01:58:06;1.95;;;1.38;;
56877;SDS011;42765;44.764;19.676;2022-08-07T02:00:34;12.35;;;1.25;;
56877;SDS011;42765;44.764;19.676;2022-08-07T02:03:04;4.15;;;0.95;;
56877;SDS011;42765;44.764;19.676;2022-08-07T02:05:33;2.05;;;1.00;;
56877;SDS011;42765;44.764;19.676;2022-08-07T02:08:00;3.17;;;0.90;;
56877;SDS011;42765;44.764;19.676;2022-08-07T02:10:30;1.33;;;1.10;;
56877;SDS011;42765;44.764;19.676;2022-08-07T02:12:58;4.10;;;2.15;;
56877;SDS011;42765;44.764;19.676;2022-08-07T02:15:25;3.42;;;1.00;;
56877;SDS011;42765;44.764;19.676;2022-08-07T02:17:53;2.22;;;0.98;;
56877;SDS011;42765;44.764;19.676;2022-08-07T02:20:21;7.70;;;1.50;;
56877;SDS011;42765;44.764;19.676;2022-08-07T02:22:49;1.05;;;0.90;;
56877;SDS011;42765;44.764;19.676;2022-08-07T02:25:25;3.67;;;1.45;;
56877;SDS011;42765;44.764;19.676;2022-08-07T02:27:53;2.28;;;1.17;;
56877;SDS011;42765;44.764;19.676;2022-08-07T02:30:20;3.10;;;1.23;;
56877;SDS011;42765;44.764;19.676;2022-08-07T02:32:48;0.95;;;0.95;;
56877;SDS011;42765;44.764;19.676;2022-08-07T02:35:14;4.82;;;1.55;;
56877;SDS011;42765;44.764;19.676;2022-08-07T02:37:43;4.43;;;1.30;;
56877;SDS011;42765;44.764;19.676;2022-08-07T02:40:10;1.15;;;0.93;;
56877;SDS011;42765;44.764;19.676;2022-08-07T02:42:37;5.43;;;1.15;;
56877;SDS011;42765;44.764;19.676;2022-08-07T02:45:05;4.57;;;1.45;;
56877;SDS011;42765;44.764;19.676;2022-08-07T02:47:33;4.93;;;2.17;;
56877;SDS011;42765;44.764;19.676;2022-08-07T02:49:59;3.70;;;1.30;;
56877;SDS011;42765;44.764;19.676;2022-08-07T02:52:29;1.40;;;1.27;;
56877;SDS011;42765;44.764;19.676;2022-08-07T02:54:59;3.92;;;1.42;;
56877;SDS011;42765;44.764;19.676;2022-08-07T02:57:31;2.70;;;1.33;;
56877;SDS011;42765;44.764;19.676;2022-08-07T03:00:00;1.90;;;1.10;;
56877;SDS011;42765;44.764;19.676;2022-08-07T03:02:29;3.03;;;1.30;;
56877;SDS011;42765;44.764;19.676;2022-08-07T03:04:55;3.28;;;1.50;;
56877;SDS011;42765;44.764;19.676;2022-08-07T03:07:24;1.40;;;1.30;;
56877;SDS011;42765;44.764;19.676;2022-08-07T03:09:51;2.72;;;1.40;;
56877;SDS011;42765;44.764;19.676;2022-08-07T03:12:17;2.65;;;1.40;;
56877;SDS011;42765;44.764;19.676;2022-08-07T03:14:44;3.17;;;1.35;;
56877;SDS011;42765;44.764;19.676;2022-08-07T03:17:10;3.70;;;1.23;;
56877;SDS011;42765;44.764;19.676;2022-08-07T03:19:36;1.45;;;1.35;;
56877;SDS011;42765;44.764;19.676;2022-08-07T03:22:06;7.90;;;1.70;;
56877;SDS011;42765;44.764;19.676;2022-08-07T03:24:33;2.78;;;1.45;;
56877;SDS011;42765;44.764;19.676;2022-08-07T03:27:01;1.45;;;1.38;;
56877;SDS011;42765;44.764;19.676;2022-08-07T03:29:33;4.85;;;1.40;;
56877;SDS011;42765;44.764;19.676;2022-08-07T03:32:04;1.50;;;1.40;;
56877;SDS011;42765;44.764;19.676;2022-08-07T03:34:32;2.90;;;1.20;;
56877;SDS011;42765;44.764;19.676;2022-08-07T03:37:00;1.85;;;1.40;;
56877;SDS011;42765;44.764;19.676;2022-08-07T03:39:28;2.70;;;1.50;;
56877;SDS011;42765;44.764;19.676;2022-08-07T03:41:57;2.40;;;1.52;;
56877;SDS011;42765;44.764;19.676;2022-08-07T03:44:24;6.30;;;1.60;;
56877;SDS011;42765;44.764;19.676;2022-08-07T03:46:51;4.20;;;1.52;;
56877;SDS011;42765;44.764;19.676;2022-08-07T03:49:17;4.22;;;1.83;;
56877;SDS011;42765;44.764;19.676;2022-08-07T03:51:43;3.15;;;1.48;;
56877;SDS011;42765;44.764;19.676;2022-08-07T03:54:09;1.95;;;1.45;;
56877;SDS011;42765;44.764;19.676;2022-08-07T03:56:35;3.33;;;1.73;;
56877;SDS011;42765;44.764;19.676;2022-08-07T03:59:05;2.05;;;1.95;;
56877;SDS011;42765;44.764;19.676;2022-08-07T04:01:31;2.00;;;1.65;;
56877;SDS011;42765;44.764;19.676;2022-08-07T04:04:00;5.88;;;2.33;;
56877;SDS011;42765;44.764;19.676;2022-08-07T04:06:26;4.60;;;2.42;;
56877;SDS011;42765;44.764;19.676;2022-08-07T04:08:51;7.88;;;2.10;;
56877;SDS011;42765;44.764;19.676;2022-08-07T04:11:18;2.78;;;1.58;;
56877;SDS011;42765;44.764;19.676;2022-08-07T04:13:44;5.43;;;2.55;;
56877;SDS011;42765;44.764;19.676;2022-08-07T04:16:11;3.75;;;2.10;;
56877;SDS011;42765;44.764;19.676;2022-08-07T04:18:37;5.75;;;1.75;;
56877;SDS011;42765;44.764;19.676;2022-08-07T04:21:03;1.55;;;1.40;;
56877;SDS011;42765;44.764;19.676;2022-08-07T04:23:30;2.95;;;1.85;;
56877;SDS011;42765;44.764;19.676;2022-08-07T04:25:57;6.15;;;1.70;;
56877;SDS011;42765;44.764;19.676;2022-08-07T04:28:23;3.75;;;2.33;;
56877;SDS011;42765;44.764;19.676;2022-08-07T04:30:49;2.25;;;1.63;;
56877;SDS011;42765;44.764;19.676;2022-08-07T04:33:15;4.55;;;1.67;;
56877;SDS011;42765;44.764;19.676;2022-08-07T04:35:45;2.92;;;1.77;;
56877;SDS011;42765;44.764;19.676;2022-08-07T04:38:12;3.25;;;1.88;;
56877;SDS011;42765;44.764;19.676;2022-08-07T04:40:39;5.43;;;1.90;;
56877;SDS011;42765;44.764;19.676;2022-08-07T04:43:07;3.95;;;2.03;;
56877;SDS011;42765;44.764;19.676;2022-08-07T04:45:37;3.78;;;1.70;;
56877;SDS011;42765;44.764;19.676;2022-08-07T04:51:25;4.05;;;2.10;;
56877;SDS011;42765;44.764;19.676;2022-08-07T04:59:07;3.05;;;1.70;;
56877;SDS011;42765;44.764;19.676;2022-08-07T05:07:33;4.15;;;1.88;;
56877;SDS011;42765;44.764;19.676;2022-08-07T05:10:10;3.60;;;2.15;;
56877;SDS011;42765;44.764;19.676;2022-08-07T05:12:47;2.63;;;2.10;;
56877;SDS011;42765;44.764;19.676;2022-08-07T05:15:40;3.95;;;2.20;;
56877;SDS011;42765;44.764;19.676;2022-08-07T05:18:08;10.15;;;2.38;;
56877;SDS011;42765;44.764;19.676;2022-08-07T05:20:41;5.97;;;2.55;;
56877;SDS011;42765;44.764;19.676;2022-08-07T05:23:20;18.58;;;2.67;;
56877;SDS011;42765;44.764;19.676;2022-08-07T05:25:51;4.50;;;2.33;;
56877;SDS011;42765;44.764;19.676;2022-08-07T05:28:18;8.40;;;2.45;;
56877;SDS011;42765;44.764;19.676;2022-08-07T05:30:45;2.67;;;2.20;;
56877;SDS011;42765;44.764;19.676;2022-08-07T05:33:12;2.80;;;2.25;;
56877;SDS011;42765;44.764;19.676;2022-08-07T05:35:39;5.07;;;2.13;;
56877;SDS011;42765;44.764;19.676;2022-08-07T05:38:06;10.05;;;2.63;;
56877;SDS011;42765;44.764;19.676;2022-08-07T05:40:35;4.65;;;2.28;;
56877;SDS011;42765;44.764;19.676;2022-08-07T05:43:02;5.30;;;2.10;;
56877;SDS011;42765;44.764;19.676;2022-08-07T05:45:29;5.07;;;2.10;;
56877;SDS011;42765;44.764;19.676;2022-08-07T05:47:55;3.58;;;2.00;;
56877;SDS011;42765;44.764;19.676;2022-08-07T05:50:22;5.20;;;2.42;;
56877;SDS011;42765;44.764;19.676;2022-08-07T05:52:49;4.28;;;2.13;;
56877;SDS011;42765;44.764;19.676;2022-08-07T05:55:15;3.08;;;1.90;;
56877;SDS011;42765;44.764;19.676;2022-08-07T05:57:40;4.07;;;2.08;;
56877;SDS011;42765;44.764;19.676;2022-08-07T06:00:07;2.95;;;1.98;;
56877;SDS011;42765;44.764;19.676;2022-08-07T06:02:35;8.82;;;2.25;;
56877;SDS011;42765;44.764;19.676;2022-08-07T06:05:04;5.07;;;2.42;;
56877;SDS011;42765;44.764;19.676;2022-08-07T06:07:35;2.45;;;2.25;;
56877;SDS011;42765;44.764;19.676;2022-08-07T06:10:01;2.67;;;2.47;;
56877;SDS011;42765;44.764;19.676;2022-08-07T06:12:28;4.32;;;2.40;;
56877;SDS011;42765;44.764;19.676;2022-08-07T06:14:54;4.05;;;2.38;;
56877;SDS011;42765;44.764;19.676;2022-08-07T06:17:22;2.70;;;2.50;;
56877;SDS011;42765;44.764;19.676;2022-08-07T06:19:49;2.85;;;1.85;;
56877;SDS011;42765;44.764;19.676;2022-08-07T06:22:15;3.47;;;2.65;;
56877;SDS011;42765;44.764;19.676;2022-08-07T06:24:43;5.82;;;2.55;;
56877;SDS011;42765;44.764;19.676;2022-08-07T06:27:10;2.80;;;2.60;;
56877;SDS011;42765;44.764;19.676;2022-08-07T06:29:45;6.00;;;2.63;;
56877;SDS011;42765;44.764;19.676;2022-08-07T06:32:11;3.72;;;2.30;;
56877;SDS011;42765;44.764;19.676;2022-08-07T06:34:38;2.95;;;2.20;;
56877;SDS011;42765;44.764;19.676;2022-08-07T06:37:04;4.43;;;2.42;;
56877;SDS011;42765;44.764;19.676;2022-08-07T06:39:30;7.22;;;2.80;;
56877;SDS011;42765;44.764;19.676;2022-08-07T06:41:58;4.10;;;2.78;;
56877;SDS011;42765;44.764;19.676;2022-08-07T06:44:27;3.65;;;2.60;;
56877;SDS011;42765;44.764;19.676;2022-08-07T06:46:54;4.07;;;2.25;;
56877;SDS011;42765;44.764;19.676;2022-08-07T06:49:20;8.27;;;2.50;;
56877;SDS011;42765;44.764;19.676;2022-08-07T06:51:46;3.97;;;2.40;;
56877;SDS011;42765;44.764;19.676;2022-08-07T06:54:13;5.30;;;2.53;;
56877;SDS011;42765;44.764;19.676;2022-08-07T06:56:42;3.95;;;2.42;;
56877;SDS011;42765;44.764;19.676;2022-08-07T06:59:15;2.30;;;2.10;;
56877;SDS011;42765;44.764;19.676;2022-08-07T07:01:44;5.93;;;2.55;;
56877;SDS011;42765;44.764;19.676;2022-08-07T07:04:11;4.00;;;2.70;;
56877;SDS011;42765;44.764;19.676;2022-08-07T07:06:37;4.60;;;2.60;;
56877;SDS011;42765;44.764;19.676;2022-08-07T07:09:16;3.92;;;2.95;;
56877;SDS011;42765;44.764;19.676;2022-08-07T07:20:03;5.38;;;3.53;;
56877;SDS011;42765;44.764;19.676;2022-08-07T07:22:31;6.53;;;3.40;;
56877;SDS011;42765;44.764;19.676;2022-08-07T07:24:59;4.93;;;2.70;;
56877;SDS011;42765;44.764;19.676;2022-08-07T07:27:28;3.35;;;3.03;;
56877;SDS011;42765;44.764;19.676;2022-08-07T07:29:58;7.20;;;2.90;;
56877;SDS011;42765;44.764;19.676;2022-08-07T07:32:25;9.85;;;3.00;;
56877;SDS011;42765;44.764;19.676;2022-08-07T07:34:56;4.35;;;2.42;;
56877;SDS011;42765;44.764;19.676;2022-08-07T07:37:24;2.92;;;2.58;;
56877;SDS011;42765;44.764;19.676;2022-08-07T07:39:54;3.08;;;2.40;;
56877;SDS011;42765;44.764;19.676;2022-08-07T07:42:24;8.70;;;3.15;;
56877;SDS011;42765;44.764;19.676;2022-08-07T07:44:50;3.67;;;3.13;;
56877;SDS011;42765;44.764;19.676;2022-08-07T07:47:18;5.47;;;2.80;;
56877;SDS011;42765;44.764;19.676;2022-08-07T07:49:46;10.00;;;3.33;;
56877;SDS011;42765;44.764;19.676;2022-08-07T07:52:13;2.70;;;2.50;;
56877;SDS011;42765;44.764;19.676;2022-08-07T07:54:41;2.92;;;2.70;;
56877;SDS011;42765;44.764;19.676;2022-08-07T07:57:07;4.38;;;2.83;;
56877;SDS011;42765;44.764;19.676;2022-08-07T07:59:35;6.22;;;3.10;;
56877;SDS011;42765;44.764;19.676;2022-08-07T08:02:03;4.63;;;3.05;;
56877;SDS011;42765;44.764;19.676;2022-08-07T08:04:31;2.80;;;2.45;;
56877;SDS011;42765;44.764;19.676;2022-08-07T08:07:00;2.58;;;2.42;;
56877;SDS011;42765;44.764;19.676;2022-08-07T08:09:26;3.08;;;2.78;;
56877;SDS011;42765;44.764;19.676;2022-08-07T08:11:53;6.93;;;2.55;;
56877;SDS011;42765;44.764;19.676;2022-08-07T08:14:20;4.85;;;2.58;;
56877;SDS011;42765;44.764;19.676;2022-08-07T08:16:46;3.22;;;2.92;;
56877;SDS011;42765;44.764;19.676;2022-08-07T08:19:16;5.40;;;2.53;;
56877;SDS011;42765;44.764;19.676;2022-08-07T08:21:46;3.35;;;2.53;;
56877;SDS011;42765;44.764;19.676;2022-08-07T08:24:35;7.32;;;2.33;;
56877;SDS011;42765;44.764;19.676;2022-08-07T08:27:27;4.38;;;2.70;;
56877;SDS011;42765;44.764;19.676;2022-08-07T08:30:01;4.07;;;2.70;;
56877;SDS011;42765;44.764;19.676;2022-08-07T08:32:51;3.30;;;2.92;;
56877;SDS011;42765;44.764;19.676;2022-08-07T08:35:22;3.60;;;3.03;;
56877;SDS011;42765;44.764;19.676;2022-08-07T08:37:50;3.05;;;2.78;;
56877;SDS011;42765;44.764;19.676;2022-08-07T08:40:40;4.68;;;2.60;;
56877;SDS011;42765;44.764;19.676;2022-08-07T08:44:03;8.77;;;2.50;;
56877;SDS011;42765;44.764;19.676;2022-08-07T08:46:27;6.43;;;2.92;;
56877;SDS011;42765;44.764;19.676;2022-08-07T08:52:17;2.58;;;2.38;;
56877;SDS011;42765;44.764;19.676;2022-08-07T08:54:56;6.68;;;2.63;;
56877;SDS011;42765;44.764;19.676;2022-08-07T08:57:43;3.67;;;3.35;;
56877;SDS011;42765;44.764;19.676;2022-08-07T09:00:18;4.40;;;2.55;;
56877;SDS011;42765;44.764;19.676;2022-08-07T09:02:50;3.90;;;2.90;;
56877;SDS011;42765;44.764;19.676;2022-08-07T09:05:42;8.48;;;3.70;;
56877;SDS011;42765;44.764;19.676;2022-08-07T09:11:04;3.00;;;2.80;;
56877;SDS011;42765;44.764;19.676;2022-08-07T09:14:13;4.97;;;3.10;;
56877;SDS011;42765;44.764;19.676;2022-08-07T09:16:51;9.32;;;3.15;;
56877;SDS011;42765;44.764;19.676;2022-08-07T09:19:39;9.57;;;3.05;;
56877;SDS011;42765;44.764;19.676;2022-08-07T09:38:24;2.83;;;2.60;;
56877;SDS011;42765;44.764;19.676;2022-08-07T09:41:34;4.63;;;3.03;;
56877;SDS011;42765;44.764;19.676;2022-08-07T09:44:08;5.90;;;2.92;;
56877;SDS011;42765;44.764;19.676;2022-08-07T10:00:31;5.40;;;3.13;;
56877;SDS011;42765;44.764;19.676;2022-08-07T10:03:39;26.75;;;4.20;;
56877;SDS011;42765;44.764;19.676;2022-08-07T10:06:48;4.40;;;2.70;;
56877;SDS011;42765;44.764;19.676;2022-08-07T10:20:18;9.82;;;3.10;;
56877;SDS011;42765;44.764;19.676;2022-08-07T10:23:11;3.30;;;2.97;;
56877;SDS011;42765;44.764;19.676;2022-08-07T10:26:19;4.90;;;2.75;;
56877;SDS011;42765;44.764;19.676;2022-08-07T10:40:35;4.50;;;2.53;;
56877;SDS011;42765;44.764;19.676;2022-08-07T10:43:18;5.00;;;2.97;;
56877;SDS011;42765;44.764;19.676;2022-08-07T10:45:48;3.97;;;3.33;;
56877;SDS011;42765;44.764;19.676;2022-08-07T11:07:54;6.30;;;3.20;;
56877;SDS011;42765;44.764;19.676;2022-08-07T11:10:49;4.95;;;2.78;;
56877;SDS011;42765;44.764;19.676;2022-08-07T11:15:52;5.90;;;2.85;;
56877;SDS011;42765;44.764;19.676;2022-08-07T11:18:24;6.90;;;2.85;;
56877;SDS011;42765;44.764;19.676;2022-08-07T11:21:16;5.97;;;2.80;;
56877;SDS011;42765;44.764;19.676;2022-08-07T11:27:29;4.25;;;2.83;;
56877;SDS011;42765;44.764;19.676;2022-08-07T11:30:03;7.07;;;3.03;;
56877;SDS011;42765;44.764;19.676;2022-08-07T11:35:19;3.20;;;2.90;;
56877;SDS011;42765;44.764;19.676;2022-08-07T11:37:54;3.45;;;2.65;;
56877;SDS011;42765;44.764;19.676;2022-08-07T11:43:25;3.60;;;2.80;;
56877;SDS011;42765;44.764;19.676;2022-08-07T11:57:02;5.13;;;3.92;;
56877;SDS011;42765;44.764;19.676;2022-08-07T11:59:51;3.45;;;2.75;;
56877;SDS011;42765;44.764;19.676;2022-08-07T12:02:32;4.85;;;2.75;;
56877;SDS011;42765;44.764;19.676;2022-08-07T12:10:51;3.58;;;2.72;;
56877;SDS011;42765;44.764;19.676;2022-08-07T12:13:27;5.70;;;3.00;;
56877;SDS011;42765;44.764;19.676;2022-08-07T12:16:10;3.25;;;2.80;;
56877;SDS011;42765;44.764;19.676;2022-08-07T12:18:46;2.83;;;2.63;;
56877;SDS011;42765;44.764;19.676;2022-08-07T12:21:34;4.47;;;3.20;;
56877;SDS011;42765;44.764;19.676;2022-08-07T12:29:28;6.50;;;3.08;;
56877;SDS011;42765;44.764;19.676;2022-08-07T12:32:04;3.53;;;2.92;;
56877;SDS011;42765;44.764;19.676;2022-08-07T12:34:33;3.83;;;3.10;;
56877;SDS011;42765;44.764;19.676;2022-08-07T12:37:02;6.57;;;3.10;;
56877;SDS011;42765;44.764;19.676;2022-08-07T12:39:31;5.60;;;2.90;;
56877;SDS011;42765;44.764;19.676;2022-08-07T12:41:59;2.80;;;2.60;;
56877;SDS011;42765;44.764;19.676;2022-08-07T12:44:25;5.82;;;3.10;;
56877;SDS011;42765;44.764;19.676;2022-08-07T12:50:39;6.63;;;3.42;;
56877;SDS011;42765;44.764;19.676;2022-08-07T12:55:58;3.47;;;3.08;;
56877;SDS011;42765;44.764;19.676;2022-08-07T12:58:26;7.97;;;3.53;;
56877;SDS011;42765;44.764;19.676;2022-08-07T13:20:46;6.93;;;3.63;;
56877;SDS011;42765;44.764;19.676;2022-08-07T13:23:23;3.25;;;2.90;;
56877;SDS011;42765;44.764;19.676;2022-08-07T13:29:12;10.43;;;2.97;;
56877;SDS011;42765;44.764;19.676;2022-08-07T13:34:34;5.13;;;3.10;;
56877;SDS011;42765;44.764;19.676;2022-08-07T13:37:18;4.75;;;3.22;;
56877;SDS011;42765;44.764;19.676;2022-08-07T13:40:27;3.25;;;2.97;;
56877;SDS011;42765;44.764;19.676;2022-08-07T13:43:19;4.47;;;2.88;;
56877;SDS011;42765;44.764;19.676;2022-08-07T13:45:50;4.40;;;3.00;;
56877;SDS011;42765;44.764;19.676;2022-08-07T13:48:17;5.55;;;3.08;;
56877;SDS011;42765;44.764;19.676;2022-08-07T13:50:47;3.42;;;3.15;;
56877;SDS011;42765;44.764;19.676;2022-08-07T13:53:22;3.92;;;2.60;;
56877;SDS011;42765;44.764;19.676;2022-08-07T13:55:54;4.97;;;2.72;;
56877;SDS011;42765;44.764;19.676;2022-08-07T13:58:21;4.15;;;2.75;;
56877;SDS011;42765;44.764;19.676;2022-08-07T14:01:08;4.53;;;2.90;;
56877;SDS011;42765;44.764;19.676;2022-08-07T14:03:36;3.20;;;2.90;;
56877;SDS011;42765;44.764;19.676;2022-08-07T14:06:05;3.35;;;2.50;;
56877;SDS011;42765;44.764;19.676;2022-08-07T14:08:35;2.60;;;2.50;;
56877;SDS011;42765;44.764;19.676;2022-08-07T14:11:08;7.22;;;3.00;;
56877;SDS011;42765;44.764;19.676;2022-08-07T14:13:39;5.63;;;2.85;;
56877;SDS011;42765;44.764;19.676;2022-08-07T14:16:06;3.13;;;2.92;;
56877;SDS011;42765;44.764;19.676;2022-08-07T14:18:38;4.65;;;3.20;;
56877;SDS011;42765;44.764;19.676;2022-08-07T14:21:23;13.43;;;3.53;;
56877;SDS011;42765;44.764;19.676;2022-08-07T14:24:06;3.17;;;2.95;;
56877;SDS011;42765;44.764;19.676;2022-08-07T14:26:47;10.48;;;3.40;;
56877;SDS011;42765;44.764;19.676;2022-08-07T14:29:19;4.93;;;3.30;;
56877;SDS011;42765;44.764;19.676;2022-08-07T14:31:56;6.22;;;2.97;;
56877;SDS011;42765;44.764;19.676;2022-08-07T14:34:24;4.60;;;2.80;;
56877;SDS011;42765;44.764;19.676;2022-08-07T14:36:52;4.90;;;2.92;;
56877;SDS011;42765;44.764;19.676;2022-08-07T14:39:18;6.00;;;2.80;;
56877;SDS011;42765;44.764;19.676;2022-08-07T14:41:47;7.57;;;3.10;;
56877;SDS011;42765;44.764;19.676;2022-08-07T14:44:15;2.77;;;2.47;;
56877;SDS011;42765;44.764;19.676;2022-08-07T14:46:42;3.22;;;2.70;;
56877;SDS011;42765;44.764;19.676;2022-08-07T14:49:09;2.95;;;2.60;;
56877;SDS011;42765;44.764;19.676;2022-08-07T14:51:36;5.45;;;3.00;;
56877;SDS011;42765;44.764;19.676;2022-08-07T14:54:06;3.50;;;2.70;;
56877;SDS011;42765;44.764;19.676;2022-08-07T14:56:35;5.43;;;3.03;;
56877;SDS011;42765;44.764;19.676;2022-08-07T14:59:06;6.50;;;3.17;;
56877;SDS011;42765;44.764;19.676;2022-08-07T15:01:35;7.13;;;3.22;;
56877;SDS011;42765;44.764;19.676;2022-08-07T15:04:07;4.53;;;2.55;;
56877;SDS011;42765;44.764;19.676;2022-08-07T15:06:36;7.22;;;3.28;;
56877;SDS011;42765;44.764;19.676;2022-08-07T15:09:06;4.70;;;2.85;;
56877;SDS011;42765;44.764;19.676;2022-08-07T15:11:42;8.80;;;3.00;;
56877;SDS011;42765;44.764;19.676;2022-08-07T15:14:20;4.28;;;2.88;;
56877;SDS011;42765;44.764;19.676;2022-08-07T15:17:30;4.45;;;2.70;;
56877;SDS011;42765;44.764;19.676;2022-08-07T15:19:50;3.17;;;2.55;;
56877;SDS011;42765;44.764;19.676;2022-08-07T15:22:21;5.85;;;3.30;;
56877;SDS011;42765;44.764;19.676;2022-08-07T15:24:51;6.38;;;3.03;;
56877;SDS011;42765;44.764;19.676;2022-08-07T15:27:21;6.72;;;2.72;;
56877;SDS011;42765;44.764;19.676;2022-08-07T15:29:50;4.55;;;2.58;;
56877;SDS011;42765;44.764;19.676;2022-08-07T15:32:19;7.13;;;2.67;;
56877;SDS011;42765;44.764;19.676;2022-08-07T15:34:51;2.97;;;2.75;;
56877;SDS011;42765;44.764;19.676;2022-08-07T15:37:28;6.57;;;2.88;;
56877;SDS011;42765;44.764;19.676;2022-08-07T15:39:57;7.28;;;2.90;;
56877;SDS011;42765;44.764;19.676;2022-08-07T15:44:59;5.43;;;2.67;;
56877;SDS011;42765;44.764;19.676;2022-08-07T15:47:31;2.90;;;2.63;;
56877;SDS011;42765;44.764;19.676;2022-08-07T15:49:59;3.25;;;2.92;;
56877;SDS011;42765;44.764;19.676;2022-08-07T15:52:28;9.20;;;3.45;;
56877;SDS011;42765;44.764;19.676;2022-08-07T15:54:55;3.55;;;3.25;;
56877;SDS011;42765;44.764;19.676;2022-08-07T15:57:23;8.52;;;3.58;;
56877;SDS011;42765;44.764;19.676;2022-08-07T15:59:53;6.78;;;3.30;;
56877;SDS011;42765;44.764;19.676;2022-08-07T16:02:30;11.80;;;3.80;;
56877;SDS011;42765;44.764;19.676;2022-08-07T16:05:11;6.57;;;3.72;;
56877;SDS011;42765;44.764;19.676;2022-08-07T16:07:44;9.38;;;3.63;;
56877;SDS011;42765;44.764;19.676;2022-08-07T16:10:15;3.95;;;2.97;;
56877;SDS011;42765;44.764;19.676;2022-08-07T16:15:36;4.30;;;3.28;;
56877;SDS011;42765;44.764;19.676;2022-08-07T16:20:53;9.27;;;3.58;;
56877;SDS011;42765;44.764;19.676;2022-08-07T16:26:37;17.48;;;4.68;;
56877;SDS011;42765;44.764;19.676;2022-08-07T16:31:59;13.38;;;4.10;;
56877;SDS011;42765;44.764;19.676;2022-08-07T16:34:38;13.00;;;4.03;;
56877;SDS011;42765;44.764;19.676;2022-08-07T16:40:12;9.60;;;3.92;;
56877;SDS011;42765;44.764;19.676;2022-08-07T16:43:17;5.50;;;4.13;;
56877;SDS011;42765;44.764;19.676;2022-08-07T16:52:12;10.07;;;4.00;;
56877;SDS011;42765;44.764;19.676;2022-08-07T16:54:52;8.98;;;3.67;;
56877;SDS011;42765;44.764;19.676;2022-08-07T17:02:43;17.67;;;4.00;;
56877;SDS011;42765;44.764;19.676;2022-08-07T17:08:09;11.75;;;3.60;;
56877;SDS011;42765;44.764;19.676;2022-08-07T17:10:48;13.98;;;4.03;;
56877;SDS011;42765;44.764;19.676;2022-08-07T17:15:56;9.95;;;3.78;;
56877;SDS011;42765;44.764;19.676;2022-08-07T17:18:28;14.35;;;3.55;;
56877;SDS011;42765;44.764;19.676;2022-08-07T17:21:13;8.32;;;3.92;;
56877;SDS011;42765;44.764;19.676;2022-08-07T17:26:35;10.50;;;4.20;;
56877;SDS011;42765;44.764;19.676;2022-08-07T17:29:15;19.08;;;3.88;;
56877;SDS011;42765;44.764;19.676;2022-08-07T17:31:54;13.02;;;3.88;;
56877;SDS011;42765;44.764;19.676;2022-08-07T17:34:28;12.93;;;4.05;;
56877;SDS011;42765;44.764;19.676;2022-08-07T17:37:03;20.02;;;4.80;;
56877;SDS011;42765;44.764;19.676;2022-08-07T17:45:00;10.57;;;5.05;;
56877;SDS011;42765;44.764;19.676;2022-08-07T17:47:33;21.20;;;5.13;;
56877;SDS011;42765;44.764;19.676;2022-08-07T17:50:02;9.32;;;4.22;;
56877;SDS011;42765;44.764;19.676;2022-08-07T17:52:34;16.70;;;4.88;;
56877;SDS011;42765;44.764;19.676;2022-08-07T17:55:10;15.27;;;5.15;;
56877;SDS011;42765;44.764;19.676;2022-08-07T18:00:04;11.77;;;4.55;;
56877;SDS011;42765;44.764;19.676;2022-08-07T18:02:50;10.55;;;5.47;;
56877;SDS011;42765;44.764;19.676;2022-08-07T18:07:45;10.27;;;4.13;;
56877;SDS011;42765;44.764;19.676;2022-08-07T18:10:21;10.40;;;4.50;;
56877;SDS011;42765;44.764;19.676;2022-08-07T18:13:02;11.07;;;4.43;;
56877;SDS011;42765;44.764;19.676;2022-08-07T18:16:15;11.88;;;4.68;;
56877;SDS011;42765;44.764;19.676;2022-08-07T18:18:21;21.52;;;5.68;;
56877;SDS011;42765;44.764;19.676;2022-08-07T18:21:01;9.90;;;4.10;;
56877;SDS011;42765;44.764;19.676;2022-08-07T18:23:37;8.95;;;4.50;;
56877;SDS011;42765;44.764;19.676;2022-08-07T18:26:06;12.93;;;4.07;;
56877;SDS011;42765;44.764;19.676;2022-08-07T18:28:44;12.05;;;4.47;;
56877;SDS011;42765;44.764;19.676;2022-08-07T18:31:35;12.60;;;4.63;;
56877;SDS011;42765;44.764;19.676;2022-08-07T18:34:31;8.75;;;4.72;;